createdAt,value
2023-05-18T00:04:48.252Z,14.00
2023-05-18T00:10:50.721Z,14.00
2023-05-18T00:16:55.724Z,14.67
2023-05-18T00:23:03.669Z,15.00
2023-05-18T00:29:07.953Z,13.33
2023-05-18T00:35:12.632Z,16.33
2023-05-18T00:41:15.345Z,14.00
2023-05-18T00:47:18.830Z,14.00
2023-05-18T00:53:21.970Z,16.00
2023-05-18T00:59:24.322Z,14.67
2023-05-18T01:05:28.628Z,14.33
2023-05-18T01:11:51.720Z,17.33
2023-05-18T01:18:26.019Z,16.33
2023-05-18T01:24:45.828Z,14.33
2023-05-18T01:30:49.115Z,15.67
2023-05-18T01:36:52.901Z,15.67
2023-05-18T01:43:01.478Z,17.33
2023-05-18T01:49:57.903Z,17.33
2023-05-18T01:56:01.136Z,18.00
2023-05-18T02:02:04.287Z,15.33
2023-05-18T02:08:07.730Z,13.00
2023-05-18T02:14:10.546Z,13.33
2023-05-18T02:20:13.891Z,14.00
2023-05-18T02:26:17.204Z,13.00
2023-05-18T02:32:28.213Z,13.67
2023-05-18T02:38:31.630Z,13.00
2023-05-18T02:44:35.664Z,14.33
2023-05-18T02:50:37.879Z,13.00
2023-05-18T02:56:44.059Z,12.00
2023-05-18T03:03:06.664Z,13.00
2023-05-18T03:09:09.367Z,10.33
2023-05-18T03:15:18.191Z,9.33
2023-05-18T03:21:22.189Z,12.00
2023-05-18T03:27:26.986Z,13.00
2023-05-18T03:33:30.652Z,14.00
2023-05-18T03:39:33.215Z,13.67
2023-05-18T03:45:36.348Z,15.00
2023-05-18T03:51:39.587Z,15.00
2023-05-18T03:57:41.848Z,14.33
2023-05-18T04:03:45.460Z,15.00
2023-05-18T04:09:55.765Z,17.00
2023-05-18T04:16:00.458Z,17.67
